createdAt,value
2023-01-13T00:00:47.748Z,4.70
2023-01-13T00:03:14.127Z,3.70
2023-01-13T00:05:40.442Z,1.80
2023-01-13T00:08:07.013Z,1.67
2023-01-13T00:10:34.294Z,2.60
2023-01-13T00:13:00.999Z,4.20
2023-01-13T00:15:27.502Z,2.83
2023-01-13T00:17:53.809Z,3.33
2023-01-13T00:20:20.286Z,4.00
2023-01-13T00:22:46.690Z,4.18
2023-01-13T00:25:13.086Z,6.18
2023-01-13T00:27:39.474Z,3.33
2023-01-13T00:30:07.374Z,3.55
2023-01-13T00:32:33.905Z,2.13
2023-01-13T00:35:00.226Z,2.85
2023-01-13T00:37:26.648Z,3.55
2023-01-13T00:39:53.168Z,1.05
2023-01-13T00:42:38.603Z,6.75
2023-01-13T00:45:05.917Z,2.15
2023-01-13T00:47:32.373Z,2.88
2023-01-13T00:49:58.711Z,2.10
2023-01-13T00:52:25.068Z,2.25
2023-01-13T00:54:51.419Z,4.43
2023-01-13T00:57:18.654Z,1.45
2023-01-13T00:59:44.977Z,4.10
2023-01-13T01:02:11.485Z,2.97
2023-01-13T01:04:39.488Z,0.80
2023-01-13T01:07:05.806Z,2.53
2023-01-13T01:09:34.457Z,2.70
2023-01-13T01:12:01.275Z,1.98
2023-01-13T01:14:27.580Z,3.67
2023-01-13T01:16:54.464Z,2.30
2023-01-13T01:19:20.795Z,1.60
2023-01-13T01:21:47.165Z,1.60
2023-01-13T01:24:15.501Z,2.15
2023-01-13T01:26:41.840Z,4.10
2023-01-13T01:29:11.632Z,0.80
2023-01-13T01:31:38.001Z,1.35
2023-01-13T01:34:04.326Z,0.95
2023-01-13T01:36:30.754Z,2.17
2023-01-13T01:38:58.305Z,2.10
2023-01-13T01:41:27.472Z,2.45
2023-01-13T01:44:07.587Z,0.90
2023-01-13T01:46:44.103Z,1.08
2023-01-13T01:49:15.790Z,1.25
2023-01-13T01:51:47.164Z,1.83
2023-01-13T01:54:17.899Z,0.80
2023-01-13T01:56:44.806Z,0.93
2023-01-13T01:59:11.466Z,2.00
2023-01-13T02:01:38.335Z,1.08
2023-01-13T02:04:14.706Z,1.98
2023-01-13T02:06:41.557Z,2.40
2023-01-13T02:09:08.337Z,3.03
2023-01-13T02:11:54.524Z,1.70
2023-01-13T02:14:22.913Z,2.53
2023-01-13T02:16:57.779Z,2.10
2023-01-13T02:19:54.562Z,3.15
2023-01-13T02:23:04.984Z,3.10
2023-01-13T02:26:26.475Z,4.40
2023-01-13T02:29:22.408Z,1.00
2023-01-13T02:31:50.087Z,2.05
2023-01-13T02:34:34.359Z,1.85
2023-01-13T02:37:07.575Z,2.47
2023-01-13T02:39:43.702Z,1.60
2023-01-13T02:42:37.619Z,1.30
2023-01-13T02:45:08.938Z,1.33
2023-01-13T02:47:37.917Z,0.82
2023-01-13T02:50:08.349Z,2.45
2023-01-13T02:52:48.379Z,0.73
2023-01-13T02:55:18.373Z,1.45
2023-01-13T02:57:45.168Z,1.38
2023-01-13T03:00:13.121Z,1.58
2023-01-13T03:02:39.536Z,1.73
2023-01-13T03:05:06.270Z,0.82
2023-01-13T03:07:35.472Z,2.33
2023-01-13T03:10:26.154Z,1.08
2023-01-13T03:13:11.120Z,1.88
2023-01-13T03:16:08.191Z,0.70
2023-01-13T03:18:45.265Z,1.75
2023-01-13T03:21:19.974Z,1.20
2023-01-13T03:23:52.176Z,0.63
2023-01-13T03:27:05.069Z,1.88
2023-01-13T03:29:41.413Z,2.30
2023-01-13T03:32:15.265Z,1.90
2023-01-13T03:34:48.531Z,0.60
2023-01-13T03:37:17.073Z,0.60
2023-01-13T03:39:48.372Z,1.20
2023-01-13T03:42:20.738Z,0.55
2023-01-13T03:44:52.703Z,1.58
2023-01-13T03:47:28.137Z,0.95
2023-01-13T03:50:10.044Z,0.60
2023-01-13T03:52:41.302Z,1.80
2023-01-13T03:55:14.927Z,1.38
2023-01-13T03:57:58.122Z,1.20
2023-01-13T04:00:28.765Z,0.52
2023-01-13T04:02:58.979Z,1.45
2023-01-13T04:05:26.034Z,1.10
2023-01-13T04:08:01.852Z,0.68
2023-01-13T04:10:31.659Z,1.48
2023-01-13T04:13:05.099Z,1.40
2023-01-13T04:15:37.754Z,0.80
2023-01-13T04:18:24.592Z,0.60
2023-01-13T04:20:52.588Z,0.65
2023-01-13T04:23:20.084Z,1.17
2023-01-13T04:25:47.203Z,0.50
2023-01-13T04:28:14.294Z,0.60
2023-01-13T04:30:42.071Z,1.48
2023-01-13T04:33:08.947Z,0.75
2023-01-13T04:35:36.048Z,1.23
2023-01-13T04:38:10.801Z,0.57
2023-01-13T04:40:37.359Z,1.58
2023-01-13T04:43:04.276Z,2.40
2023-01-13T04:45:31.140Z,0.52
2023-01-13T04:47:57.823Z,0.95
2023-01-13T04:50:24.454Z,0.75
2023-01-13T04:52:52.068Z,1.10
2023-01-13T04:55:19.262Z,1.15
2023-01-13T04:57:45.909Z,1.33
2023-01-13T05:00:14.624Z,0.70
2023-01-13T05:02:41.177Z,0.95
2023-01-13T05:05:08.168Z,1.00
2023-01-13T05:07:34.688Z,0.88
2023-01-13T05:10:01.171Z,1.02
2023-01-13T05:12:46.009Z,1.45
2023-01-13T05:15:32.589Z,1.15
2023-01-13T05:17:59.363Z,1.40
2023-01-13T05:20:26.152Z,0.45
2023-01-13T05:23:11.606Z,1.67
2023-01-13T05:25:41.464Z,0.98
2023-01-13T05:28:09.905Z,0.60
2023-01-13T05:30:38.997Z,0.77
2023-01-13T05:33:05.427Z,1.65
2023-01-13T05:35:31.929Z,0.40
2023-01-13T05:37:58.441Z,0.30
2023-01-13T05:40:43.250Z,0.40
2023-01-13T05:43:21.034Z,0.50
2023-01-13T05:45:48.408Z,0.73
2023-01-13T05:48:15.213Z,0.50
2023-01-13T05:50:41.697Z,1.30
2023-01-13T05:53:08.199Z,1.10
2023-01-13T05:55:34.798Z,0.57
2023-01-13T05:58:01.414Z,2.00
2023-01-13T06:00:27.915Z,3.72
2023-01-13T06:02:54.486Z,1.55
2023-01-13T06:05:21.057Z,2.58
2023-01-13T06:07:47.584Z,2.05
2023-01-13T06:10:14.008Z,1.30
2023-01-13T06:12:40.399Z,1.52
2023-01-13T06:15:07.338Z,1.42
2023-01-13T06:17:33.881Z,1.63
2023-01-13T06:20:00.450Z,3.10
2023-01-13T06:22:32.330Z,1.33
2023-01-13T06:24:59.113Z,1.48
2023-01-13T06:27:25.547Z,1.67
2023-01-13T06:29:52.022Z,3.17
2023-01-13T06:32:28.756Z,1.83
2023-01-13T06:34:59.101Z,1.35
2023-01-13T06:37:26.781Z,3.08
2023-01-13T06:39:58.230Z,1.17
2023-01-13T06:42:44.745Z,3.08
2023-01-13T06:45:11.108Z,1.45
2023-01-13T06:47:37.569Z,0.82
2023-01-13T06:50:04.255Z,1.10
2023-01-13T06:52:30.645Z,2.22
2023-01-13T06:54:57.629Z,4.57
2023-01-13T06:57:24.377Z,4.50
2023-01-13T06:59:50.779Z,6.07
2023-01-13T07:02:17.191Z,3.00
2023-01-13T07:04:44.334Z,1.95
2023-01-13T07:07:12.263Z,3.40
2023-01-13T07:09:39.243Z,4.30
2023-01-13T07:12:05.743Z,2.75
2023-01-13T07:14:51.450Z,3.50
2023-01-13T07:17:24.966Z,3.97
2023-01-13T07:19:52.245Z,2.80
2023-01-13T07:22:18.723Z,1.77
2023-01-13T07:24:45.131Z,2.47
2023-01-13T07:27:11.629Z,1.83
2023-01-13T07:29:38.034Z,2.05
2023-01-13T07:32:05.444Z,3.42
2023-01-13T07:34:31.903Z,2.90
2023-01-13T07:36:58.386Z,4.03
2023-01-13T07:39:24.759Z,3.42
2023-01-13T07:42:09.474Z,2.08
2023-01-13T07:44:35.852Z,4.32
2023-01-13T07:47:02.187Z,2.60
2023-01-13T07:49:28.570Z,2.70
2023-01-13T07:51:54.966Z,3.25
2023-01-13T07:54:35.151Z,3.55
2023-01-13T07:57:05.953Z,6.30
2023-01-13T07:59:32.370Z,1.33
2023-01-13T08:01:58.879Z,2.75
2023-01-13T08:04:25.349Z,3.22
2023-01-13T08:06:51.721Z,2.75
2023-01-13T08:09:18.325Z,3.53
2023-01-13T08:11:44.724Z,1.25
2023-01-13T08:14:11.115Z,2.30
2023-01-13T08:16:37.480Z,2.40
2023-01-13T08:19:03.883Z,2.72
2023-01-13T08:21:30.253Z,4.35
2023-01-13T08:23:56.724Z,1.73
2023-01-13T08:26:23.158Z,2.55
2023-01-13T08:28:49.494Z,4.13
2023-01-13T08:31:17.040Z,3.55
2023-01-13T08:33:43.948Z,1.15
2023-01-13T08:36:12.149Z,3.53
2023-01-13T08:38:38.594Z,3.55
2023-01-13T08:41:10.157Z,3.83
2023-01-13T08:43:36.739Z,2.75
2023-01-13T08:46:04.583Z,2.67
2023-01-13T08:48:31.671Z,3.20
2023-01-13T08:51:05.119Z,3.28
2023-01-13T08:53:31.637Z,3.78
2023-01-13T08:55:58.030Z,4.13
2023-01-13T08:58:25.114Z,3.35
2023-01-13T09:00:51.511Z,3.33
2023-01-13T09:03:17.867Z,3.90
2023-01-13T09:05:44.239Z,2.67
2023-01-13T09:08:10.618Z,4.05
2023-01-13T09:10:37.052Z,5.72
2023-01-13T09:13:12.543Z,3.80
2023-01-13T09:15:40.743Z,1.58
2023-01-13T09:18:07.267Z,2.03
2023-01-13T09:20:33.615Z,1.23
2023-01-13T09:23:00.004Z,3.08
2023-01-13T09:25:26.411Z,2.13
2023-01-13T09:27:52.867Z,3.28
2023-01-13T09:30:19.266Z,3.33
2023-01-13T09:32:45.596Z,2.80
2023-01-13T09:35:12.004Z,2.40
2023-01-13T09:37:39.952Z,3.95
2023-01-13T09:40:16.328Z,4.65
2023-01-13T09:43:21.493Z,3.53
2023-01-13T09:45:53.081Z,4.25
2023-01-13T09:48:23.866Z,3.13
2023-01-13T09:51:16.785Z,3.42
2023-01-13T09:53:51.544Z,2.65
2023-01-13T09:56:17.949Z,2.05
2023-01-13T09:58:45.618Z,3.38
2023-01-13T10:01:35.545Z,3.35
2023-01-13T10:04:11.411Z,4.53
2023-01-13T10:06:39.474Z,6.05
2023-01-13T10:09:05.947Z,4.22
2023-01-13T10:11:58.724Z,3.50
2023-01-13T10:14:51.870Z,6.25
2023-01-13T10:17:23.192Z,4.45
2023-01-13T10:20:24.551Z,6.35
2023-01-13T10:23:28.429Z,7.53
2023-01-13T10:26:23.009Z,4.72
2023-01-13T10:28:56.722Z,9.05
2023-01-13T10:31:24.580Z,6.57
2023-01-13T10:34:01.599Z,5.93
2023-01-13T10:36:28.023Z,7.38
2023-01-13T10:39:07.699Z,7.25
2023-01-13T10:41:36.051Z,5.32
2023-01-13T10:44:13.607Z,6.53
2023-01-13T10:46:57.784Z,6.60
2023-01-13T10:49:38.653Z,5.18
2023-01-13T10:52:25.246Z,10.07
2023-01-13T10:54:52.782Z,5.10
2023-01-13T10:57:24.146Z,7.15
2023-01-13T10:59:51.239Z,6.72
2023-01-13T11:02:29.509Z,9.45
2023-01-13T11:04:55.938Z,6.75
2023-01-13T11:07:46.363Z,7.07
2023-01-13T11:10:27.482Z,6.35
2023-01-13T11:13:11.762Z,6.97
2023-01-13T11:15:50.721Z,9.10
2023-01-13T11:18:51.719Z,5.35
2023-01-13T11:21:23.339Z,4.65
2023-01-13T11:23:57.588Z,5.10
2023-01-13T11:26:29.471Z,3.92
2023-01-13T11:29:11.466Z,3.70
2023-01-13T11:31:43.641Z,4.40
2023-01-13T11:34:27.038Z,4.90
2023-01-13T11:36:55.789Z,3.33
2023-01-13T11:39:59.800Z,5.93
2023-01-13T11:42:31.439Z,6.45
2023-01-13T11:45:03.873Z,8.13
2023-01-13T11:47:31.652Z,4.55
2023-01-13T11:49:58.123Z,6.15
2023-01-13T11:52:30.295Z,6.43
2023-01-13T11:55:17.825Z,4.03
2023-01-13T12:01:03.868Z,5.85
2023-01-13T12:03:35.612Z,5.63
2023-01-13T12:06:08.043Z,8.77
2023-01-13T12:08:52.831Z,7.47
2023-01-13T12:11:30.910Z,5.53
2023-01-13T12:14:19.301Z,6.55
2023-01-13T12:16:50.580Z,6.22
2023-01-13T12:19:25.059Z,7.20
2023-01-13T12:22:11.021Z,11.65
2023-01-13T12:24:54.402Z,7.45
2023-01-13T12:27:47.835Z,5.18
2023-01-13T12:30:23.951Z,7.13
2023-01-13T12:32:50.667Z,7.00
2023-01-13T12:35:29.796Z,8.00
2023-01-13T12:38:12.300Z,7.30
2023-01-13T12:40:51.506Z,7.97
2023-01-13T12:43:38.247Z,6.53
2023-01-13T12:46:20.934Z,6.72
2023-01-13T12:48:59.380Z,5.55
2023-01-13T12:51:37.447Z,7.90
2023-01-13T12:54:32.768Z,9.93
2023-01-13T12:56:59.308Z,4.10
2023-01-13T12:59:25.633Z,4.90
2023-01-13T13:02:12.262Z,8.73
2023-01-13T13:04:51.164Z,9.23
2023-01-13T13:07:23.469Z,5.18
2023-01-13T13:09:53.324Z,6.75
2023-01-13T13:13:01.372Z,8.93
2023-01-13T13:15:33.956Z,11.55
2023-01-13T13:18:12.022Z,5.78
2023-01-13T13:20:56.577Z,4.68
2023-01-13T13:23:49.197Z,7.47
2023-01-13T13:26:22.029Z,5.47
2023-01-13T13:29:19.142Z,7.32
2023-01-13T13:32:27.544Z,5.95
2023-01-13T13:35:07.995Z,5.65
2023-01-13T13:38:13.694Z,4.88
2023-01-13T13:41:01.157Z,5.03
2023-01-13T13:43:46.959Z,4.85
2023-01-13T13:46:49.197Z,2.88
2023-01-13T13:49:18.205Z,1.42
2023-01-13T13:52:00.642Z,5.45
2023-01-13T13:54:27.268Z,3.75
2023-01-13T13:56:53.765Z,4.40
2023-01-13T13:59:25.066Z,4.50
2023-01-13T14:02:01.442Z,3.90
2023-01-13T14:04:33.206Z,2.95
2023-01-13T14:07:04.243Z,6.90
2023-01-13T14:09:41.326Z,7.50
2023-01-13T14:12:19.633Z,5.78
2023-01-13T14:14:47.369Z,4.90
2023-01-13T14:17:27.807Z,5.13
2023-01-13T14:20:07.836Z,5.13
2023-01-13T14:22:34.546Z,4.00
2023-01-13T14:25:01.927Z,7.93
2023-01-13T14:27:29.900Z,5.50
2023-01-13T14:29:59.237Z,7.93
2023-01-13T14:32:31.450Z,7.20
2023-01-13T14:34:57.845Z,7.63
2023-01-13T14:37:39.359Z,6.82
2023-01-13T14:40:06.269Z,4.72
2023-01-13T14:42:35.321Z,3.80
2023-01-13T14:45:03.097Z,8.02
2023-01-13T14:47:32.229Z,7.57
2023-01-13T14:50:02.923Z,10.27
2023-01-13T14:52:34.795Z,6.60
2023-01-13T14:55:08.585Z,6.72
2023-01-13T14:57:36.596Z,7.65
2023-01-13T15:00:15.089Z,5.97
2023-01-13T15:02:48.407Z,7.93
2023-01-13T15:05:17.709Z,8.48
2023-01-13T15:08:09.712Z,4.88
2023-01-13T15:10:45.318Z,4.50
2023-01-13T15:13:26.757Z,7.60
2023-01-13T15:15:59.720Z,7.95
2023-01-13T15:18:26.157Z,10.02
2023-01-13T15:20:54.895Z,8.75
2023-01-13T15:23:21.755Z,9.98
2023-01-13T15:25:48.861Z,12.25
2023-01-13T15:28:20.517Z,7.05
2023-01-13T15:30:47.997Z,9.43
2023-01-13T15:33:15.925Z,6.70
2023-01-13T15:35:45.175Z,4.57
2023-01-13T15:38:16.214Z,8.35
2023-01-13T15:40:43.309Z,5.40
2023-01-13T15:43:46.596Z,8.52
2023-01-13T15:46:37.792Z,4.55
2023-01-13T15:49:09.726Z,6.80
2023-01-13T15:51:36.551Z,7.53
2023-01-13T15:54:03.001Z,6.43
2023-01-13T15:56:29.450Z,10.98
2023-01-13T15:58:55.982Z,5.20
2023-01-13T16:01:23.247Z,5.53
2023-01-13T16:03:49.832Z,4.90
2023-01-13T16:06:19.639Z,7.82
2023-01-13T16:08:46.343Z,6.32
2023-01-13T16:11:12.707Z,6.85
2023-01-13T16:13:39.436Z,7.50
2023-01-13T16:16:23.500Z,9.00
2023-01-13T16:18:50.917Z,6.38
2023-01-13T16:21:19.263Z,7.80
2023-01-13T16:23:45.866Z,5.35
2023-01-13T16:26:18.162Z,4.78
2023-01-13T16:28:44.660Z,6.70
2023-01-13T16:31:27.159Z,7.30
2023-01-13T16:33:53.993Z,4.45
2023-01-13T16:36:21.384Z,6.32
2023-01-13T16:38:49.092Z,6.38
2023-01-13T16:41:16.805Z,4.72
2023-01-13T16:43:43.596Z,5.50
2023-01-13T16:46:24.997Z,7.47
2023-01-13T16:48:55.263Z,7.22
2023-01-13T16:51:22.596Z,7.32
2023-01-13T16:53:49.564Z,5.93
2023-01-13T16:56:29.204Z,6.50
2023-01-13T16:59:01.189Z,8.68
2023-01-13T17:01:29.568Z,6.97
2023-01-13T17:03:56.753Z,8.85
2023-01-13T17:06:32.402Z,5.68
2023-01-13T17:09:03.823Z,7.82
2023-01-13T17:11:30.634Z,7.28
2023-01-13T17:13:57.076Z,6.57
2023-01-13T17:16:24.461Z,7.85
2023-01-13T17:18:51.025Z,7.50
2023-01-13T17:21:17.496Z,6.05
2023-01-13T17:23:44.456Z,7.47
2023-01-13T17:26:25.617Z,8.93
2023-01-13T17:28:53.759Z,8.57
2023-01-13T17:31:20.123Z,5.15
2023-01-13T17:33:46.499Z,8.00
2023-01-13T17:36:12.817Z,7.50
2023-01-13T17:38:39.139Z,7.38
2023-01-13T17:41:05.449Z,7.18
2023-01-13T17:43:32.094Z,5.18
2023-01-13T17:45:59.797Z,6.68
2023-01-13T17:48:26.721Z,5.57
2023-01-13T17:50:53.522Z,6.18
2023-01-13T17:53:20.571Z,5.80
2023-01-13T17:55:51.503Z,7.65
2023-01-13T17:58:17.991Z,5.43
2023-01-13T18:00:44.920Z,8.27
2023-01-13T18:03:11.707Z,5.80
2023-01-13T18:05:38.746Z,6.95
2023-01-13T18:08:05.314Z,9.38
2023-01-13T18:10:32.840Z,7.13
2023-01-13T18:12:59.250Z,7.60
2023-01-13T18:15:25.957Z,5.03
2023-01-13T18:17:52.287Z,7.45
2023-01-13T18:20:37.674Z,5.57
2023-01-13T18:23:22.429Z,9.57
2023-01-13T18:26:07.485Z,7.22
2023-01-13T18:28:33.904Z,7.07
2023-01-13T18:31:00.321Z,7.78
2023-01-13T18:33:26.687Z,6.68
2023-01-13T18:35:53.015Z,4.20
2023-01-13T18:38:28.387Z,10.80
2023-01-13T18:40:54.816Z,8.25
2023-01-13T18:43:21.176Z,6.57
2023-01-13T18:45:50.294Z,5.78
2023-01-13T18:48:16.697Z,7.70
2023-01-13T18:50:43.892Z,8.10
2023-01-13T18:53:10.222Z,9.93
2023-01-13T18:55:37.313Z,7.22
2023-01-13T18:58:04.386Z,8.68
2023-01-13T19:00:36.310Z,10.82
2023-01-13T19:05:32.590Z,6.68
2023-01-13T19:07:59.171Z,11.35
2023-01-13T19:10:27.606Z,10.02
2023-01-13T19:12:53.908Z,13.02
2023-01-13T19:15:20.232Z,16.48
2023-01-13T19:17:46.688Z,10.43
2023-01-13T19:20:13.016Z,7.68
2023-01-13T19:22:39.467Z,13.32
2023-01-13T19:25:06.048Z,7.65
2023-01-13T19:27:32.454Z,9.50
2023-01-13T19:30:00.450Z,11.70
2023-01-13T19:32:27.529Z,9.88
2023-01-13T19:34:54.940Z,15.88
2023-01-13T19:37:21.347Z,10.90
2023-01-13T19:39:47.712Z,12.40
2023-01-13T19:42:33.372Z,12.82
2023-01-13T19:45:18.085Z,11.55
2023-01-13T19:47:45.689Z,9.38
2023-01-13T19:50:13.773Z,9.45
2023-01-13T19:52:41.310Z,13.70
2023-01-13T19:55:07.891Z,8.88
2023-01-13T19:57:34.247Z,10.35
2023-01-13T20:00:00.644Z,10.10
2023-01-13T20:02:31.479Z,7.07
2023-01-13T20:04:59.935Z,10.60
2023-01-13T20:07:28.391Z,9.20
2023-01-13T20:09:56.294Z,7.00
2023-01-13T20:12:23.739Z,9.90
2023-01-13T20:14:50.143Z,8.40
2023-01-13T20:17:18.825Z,12.90
2023-01-13T20:19:45.187Z,12.95
2023-01-13T20:22:11.828Z,9.38
2023-01-13T20:24:38.212Z,12.95
2023-01-13T20:27:05.438Z,7.20
2023-01-13T20:29:32.229Z,9.80
2023-01-13T20:31:58.573Z,9.32
2023-01-13T20:34:24.969Z,9.23
2023-01-13T20:36:51.417Z,11.48
2023-01-13T20:39:23.539Z,10.07
2023-01-13T20:42:08.850Z,10.55
2023-01-13T20:44:35.425Z,9.27
2023-01-13T20:47:02.718Z,6.85
2023-01-13T20:49:30.092Z,9.55
2023-01-13T20:51:57.034Z,6.53
2023-01-13T20:54:23.600Z,13.55
2023-01-13T20:56:49.919Z,12.88
2023-01-13T20:59:16.471Z,7.88
2023-01-13T21:01:43.010Z,7.63
2023-01-13T21:04:09.612Z,11.35
2023-01-13T21:06:36.224Z,6.35
2023-01-13T21:09:02.574Z,8.55
2023-01-13T21:11:47.320Z,10.70
2023-01-13T21:14:33.914Z,8.73
2023-01-13T21:17:00.353Z,11.00
2023-01-13T21:19:26.765Z,9.10
2023-01-13T21:21:54.057Z,12.57
2023-01-13T21:24:20.509Z,10.65
2023-01-13T21:26:48.960Z,11.48
2023-01-13T21:29:15.317Z,8.63
2023-01-13T21:31:41.766Z,10.63
2023-01-13T21:34:09.733Z,11.05
2023-01-13T21:36:36.118Z,9.88
2023-01-13T21:39:02.554Z,11.65
2023-01-13T21:41:47.359Z,9.07
2023-01-13T21:44:37.624Z,13.88
2023-01-13T21:47:23.632Z,10.27
2023-01-13T21:49:50.027Z,9.05
2023-01-13T21:52:16.450Z,12.88
2023-01-13T21:55:01.162Z,7.95
2023-01-13T21:57:27.807Z,8.30
2023-01-13T21:59:54.129Z,9.85
2023-01-13T22:02:31.831Z,7.72
2023-01-13T22:05:03.756Z,8.25
2023-01-13T22:07:32.319Z,11.88
2023-01-13T22:09:59.177Z,8.52
2023-01-13T22:12:25.685Z,10.93
2023-01-13T22:14:52.193Z,9.82
2023-01-13T22:17:20.814Z,11.68
2023-01-13T22:19:47.917Z,8.35
2023-01-13T22:22:15.837Z,11.23
2023-01-13T22:24:43.509Z,11.95
2023-01-13T22:27:10.754Z,9.18
2023-01-13T22:29:37.814Z,10.57
2023-01-13T22:32:05.132Z,7.10
2023-01-13T22:34:32.281Z,8.05
2023-01-13T22:36:59.200Z,11.48
2023-01-13T22:39:26.050Z,8.63
2023-01-13T22:41:52.631Z,6.90
2023-01-13T22:44:19.156Z,6.43
2023-01-13T22:46:45.801Z,7.28
2023-01-13T22:49:14.865Z,7.57
2023-01-13T22:51:41.263Z,9.98
2023-01-13T22:54:07.977Z,9.90
2023-01-13T22:56:34.433Z,8.68
2023-01-13T22:59:01.940Z,10.13
2023-01-13T23:01:31.077Z,9.05
2023-01-13T23:03:57.744Z,9.55
2023-01-13T23:06:25.886Z,6.18
2023-01-13T23:08:52.654Z,12.65
2023-01-13T23:11:22.893Z,9.77
2023-01-13T23:13:49.940Z,7.75
2023-01-13T23:16:21.216Z,5.30
2023-01-13T23:18:48.521Z,8.40
2023-01-13T23:21:29.930Z,6.55
2023-01-13T23:23:58.578Z,6.75
2023-01-13T23:26:25.778Z,7.68
2023-01-13T23:28:52.334Z,5.55
2023-01-13T23:31:21.135Z,5.43
2023-01-13T23:33:48.208Z,8.95
2023-01-13T23:36:23.418Z,8.75
2023-01-13T23:38:50.212Z,9.05
2023-01-13T23:41:19.554Z,9.50
2023-01-13T23:44:01.386Z,10.73
2023-01-13T23:46:29.748Z,8.95
2023-01-13T23:48:56.541Z,13.70
2023-01-13T23:51:23.479Z,9.48
2023-01-13T23:53:50.451Z,10.45
2023-01-13T23:56:20.180Z,14.75
2023-01-13T23:58:47.300Z,12.07
